createdAt,value
2023-04-17T00:00:15.397Z,101968.13
2023-04-17T00:02:43.379Z,101969.34
2023-04-17T00:05:11.206Z,101966.88
2023-04-17T00:07:39.292Z,101971.16
2023-04-17T00:10:09.479Z,101974.34
2023-04-17T00:12:39.376Z,101974.50
2023-04-17T00:15:08.230Z,101974.84
2023-04-17T00:17:36.004Z,101971.94
2023-04-17T00:20:07.920Z,101973.63
2023-04-17T00:22:36.267Z,101968.59
2023-04-17T00:25:04.391Z,101960.06
2023-04-17T00:27:32.230Z,101961.16
2023-04-17T00:30:01.601Z,101953.84
2023-04-17T00:32:29.498Z,101953.59
2023-04-17T00:34:57.296Z,101954.13
2023-04-17T00:37:25.078Z,101947.53
2023-04-17T00:39:52.767Z,101952.19
2023-04-17T00:42:20.455Z,101944.00
2023-04-17T00:44:48.203Z,101940.22
2023-04-17T00:47:17.350Z,101946.78
2023-04-17T00:49:45.271Z,101943.84
2023-04-17T00:52:13.757Z,101947.59
2023-04-17T00:54:41.723Z,101945.31
2023-04-17T00:57:09.511Z,101943.44
2023-04-17T00:59:40.095Z,101944.41
2023-04-17T01:02:07.920Z,101939.75
2023-04-17T01:04:37.114Z,101940.44
2023-04-17T01:07:04.893Z,101941.47
2023-04-17T01:09:32.705Z,101944.50
2023-04-17T01:12:19.013Z,101941.34
2023-04-17T01:14:46.904Z,101936.06
2023-04-17T01:17:15.364Z,101935.63
2023-04-17T01:19:44.500Z,101936.97
2023-04-17T01:22:12.390Z,101928.22
2023-04-17T01:24:41.598Z,101936.50
2023-04-17T01:27:09.391Z,101942.13
2023-04-17T01:29:37.143Z,101931.84
2023-04-17T01:32:05.096Z,101934.47
2023-04-17T01:34:32.803Z,101932.38
2023-04-17T01:37:00.533Z,101936.53
2023-04-17T01:39:28.284Z,101928.03
2023-04-17T01:41:57.474Z,101928.91
2023-04-17T01:44:25.243Z,101931.75
2023-04-17T01:46:53.009Z,101932.91
2023-04-17T01:49:20.808Z,101934.09
2023-04-17T01:51:48.591Z,101937.63
2023-04-17T01:54:16.390Z,101937.81
2023-04-17T01:56:44.282Z,101929.41
2023-04-17T01:59:13.616Z,101936.16
2023-04-17T02:01:41.589Z,101927.03
2023-04-17T02:04:09.814Z,101923.53
2023-04-17T02:06:37.570Z,101916.88
2023-04-17T02:09:06.180Z,101921.69
2023-04-17T02:11:33.944Z,101922.47
2023-04-17T02:14:01.891Z,101925.91
2023-04-17T02:16:31.823Z,101922.78
2023-04-17T02:18:59.604Z,101924.97
2023-04-17T02:21:28.293Z,101920.69
2023-04-17T02:23:55.956Z,101908.66
2023-04-17T02:26:23.667Z,101919.97
2023-04-17T02:28:51.374Z,101928.22
2023-04-17T02:31:19.376Z,101922.56
2023-04-17T02:33:48.441Z,101918.22
2023-04-17T02:36:16.221Z,101917.91
2023-04-17T02:38:43.886Z,101917.34
2023-04-17T02:41:11.610Z,101919.81
2023-04-17T02:43:39.344Z,101916.50
2023-04-17T02:46:07.072Z,101922.94
2023-04-17T02:48:34.841Z,101919.06
2023-04-17T02:51:03.920Z,101930.22
2023-04-17T02:53:31.598Z,101927.16
2023-04-17T02:55:59.360Z,101921.91
2023-04-17T02:58:27.062Z,101922.69
2023-04-17T03:01:01.381Z,101926.13
2023-04-17T03:03:31.229Z,101929.59
2023-04-17T03:05:59.177Z,101929.44
2023-04-17T03:08:32.579Z,101927.91
2023-04-17T03:11:00.841Z,101940.28
2023-04-17T03:13:28.518Z,101934.44
2023-04-17T03:15:56.255Z,101927.28
2023-04-17T03:18:24.067Z,101929.44
2023-04-17T03:20:52.786Z,101927.75
2023-04-17T03:23:20.513Z,101924.25
2023-04-17T03:25:49.629Z,101929.16
2023-04-17T03:28:17.384Z,101925.75
2023-04-17T03:30:45.300Z,101926.31
2023-04-17T03:33:12.964Z,101928.41
2023-04-17T03:35:40.939Z,101921.06
2023-04-17T03:38:08.679Z,101920.75
2023-04-17T03:40:36.625Z,101914.47
2023-04-17T03:43:05.757Z,101920.34
2023-04-17T03:45:33.574Z,101926.72
2023-04-17T03:48:01.501Z,101918.69
2023-04-17T03:50:29.307Z,101924.03
2023-04-17T03:52:57.040Z,101921.56
2023-04-17T03:55:25.017Z,101921.16
2023-04-17T03:57:52.724Z,101919.03
2023-04-17T04:00:22.133Z,101917.88
2023-04-17T04:02:50.202Z,101923.59
2023-04-17T04:05:18.286Z,101915.34
2023-04-17T04:07:46.074Z,101918.03
2023-04-17T04:10:13.776Z,101916.13
2023-04-17T04:12:41.471Z,101908.56
2023-04-17T04:15:10.542Z,101911.72
2023-04-17T04:17:39.869Z,101911.78
2023-04-17T04:20:09.126Z,101909.56
2023-04-17T04:22:36.873Z,101918.31
2023-04-17T04:25:04.721Z,101916.28
2023-04-17T04:27:33.214Z,101919.56
2023-04-17T04:30:02.046Z,101924.13
2023-04-17T04:32:29.972Z,101927.00
2023-04-17T04:35:01.579Z,101925.44
2023-04-17T04:37:32.162Z,101930.31
2023-04-17T04:40:10.533Z,101931.09
2023-04-17T04:42:39.709Z,101931.22
2023-04-17T04:45:08.334Z,101935.25
2023-04-17T04:47:36.396Z,101936.44
2023-04-17T04:50:06.221Z,101936.63
2023-04-17T04:52:33.995Z,101934.00
2023-04-17T04:55:01.970Z,101938.59
2023-04-17T04:57:29.804Z,101943.63
2023-04-17T04:59:57.550Z,101945.88
2023-04-17T05:02:26.145Z,101951.31
2023-04-17T05:04:54.085Z,101949.69
2023-04-17T05:07:23.188Z,101960.28
2023-04-17T05:09:51.121Z,101956.16
2023-04-17T05:12:18.861Z,101964.13
2023-04-17T05:14:47.865Z,101963.13
2023-04-17T05:17:15.561Z,101959.47
2023-04-17T05:19:43.245Z,101969.22
2023-04-17T05:22:10.985Z,101966.69
2023-04-17T05:24:40.075Z,101971.00
2023-04-17T05:27:07.830Z,101973.66
2023-04-17T05:29:37.313Z,101978.97
2023-04-17T05:32:05.739Z,101984.22
2023-04-17T05:34:33.530Z,101990.09
2023-04-17T05:37:01.469Z,101989.31
2023-04-17T05:39:29.202Z,101988.41
2023-04-17T05:41:58.301Z,101983.84
2023-04-17T05:44:26.112Z,101988.56
2023-04-17T05:46:56.323Z,101987.53
2023-04-17T05:49:24.222Z,101997.94
2023-04-17T05:51:51.915Z,102002.84
2023-04-17T05:54:19.675Z,101996.69
2023-04-17T05:56:47.635Z,101998.56
2023-04-17T05:59:16.748Z,101996.06
2023-04-17T06:01:44.647Z,101999.84
2023-04-17T06:04:12.968Z,101996.47
2023-04-17T06:06:40.934Z,101999.16
2023-04-17T06:09:09.560Z,102002.53
2023-04-17T06:11:37.436Z,102002.47
2023-04-17T06:14:05.456Z,102005.53
2023-04-17T06:16:34.628Z,102010.19
2023-04-17T06:19:02.380Z,102006.69
2023-04-17T06:21:31.408Z,102015.75
2023-04-17T06:23:59.152Z,102016.31
2023-04-17T06:26:26.985Z,102021.13
2023-04-17T06:28:54.766Z,102017.38
2023-04-17T06:31:22.540Z,102019.59
2023-04-17T06:33:51.580Z,102019.16
2023-04-17T06:36:19.361Z,102021.06
2023-04-17T06:38:47.068Z,102024.00
2023-04-17T06:41:15.509Z,102027.22
2023-04-17T06:43:43.219Z,102030.25
2023-04-17T06:46:11.057Z,102033.75
2023-04-17T06:48:38.750Z,102037.34
2023-04-17T06:51:07.974Z,102037.38
2023-04-17T06:53:36.039Z,102037.75
2023-04-17T06:56:03.737Z,102038.69
2023-04-17T06:58:31.577Z,102044.22
2023-04-17T07:00:59.289Z,102051.09
2023-04-17T07:03:27.256Z,102056.19
2023-04-17T07:05:55.226Z,102056.59
2023-04-17T07:08:24.296Z,102054.56
2023-04-17T07:10:52.065Z,102051.88
2023-04-17T07:13:19.764Z,102054.88
2023-04-17T07:15:52.683Z,102059.97
2023-04-17T07:18:21.549Z,102066.09
2023-04-17T07:20:49.460Z,102062.75
2023-04-17T07:23:17.208Z,102064.03
2023-04-17T07:25:46.296Z,102061.25
2023-04-17T07:28:14.373Z,102060.38
2023-04-17T07:30:42.634Z,102066.41
2023-04-17T07:33:10.386Z,102067.88
2023-04-17T07:35:38.249Z,102065.78
2023-04-17T07:38:05.984Z,102062.53
2023-04-17T07:40:35.772Z,102061.94
2023-04-17T07:43:04.868Z,102055.81
2023-04-17T07:45:33.712Z,102061.81
2023-04-17T07:48:01.605Z,102060.25
2023-04-17T07:50:29.318Z,102064.69
2023-04-17T07:52:57.566Z,102070.75
2023-04-17T07:55:25.428Z,102070.06
2023-04-17T07:57:53.200Z,102071.19
2023-04-17T08:00:23.852Z,102064.66
2023-04-17T08:02:52.471Z,102069.44
2023-04-17T08:05:20.462Z,102064.63
2023-04-17T08:07:48.281Z,102058.81
2023-04-17T08:10:16.303Z,102059.03
2023-04-17T08:12:44.350Z,102055.28
2023-04-17T08:15:12.810Z,102055.28
2023-04-17T08:17:41.931Z,102061.19
2023-04-17T08:20:13.360Z,102057.06
2023-04-17T08:22:41.896Z,102054.09
2023-04-17T08:25:11.147Z,102056.09
2023-04-17T08:27:39.904Z,102065.97
2023-04-17T08:30:11.961Z,102064.38
2023-04-17T08:32:44.583Z,102057.88
2023-04-17T08:35:13.976Z,102063.38
2023-04-17T08:37:42.372Z,102065.69
2023-04-17T08:40:11.170Z,102060.94
2023-04-17T08:42:41.555Z,102061.81
2023-04-17T08:45:11.514Z,102062.97
2023-04-17T08:47:40.507Z,102062.00
2023-04-17T08:50:11.792Z,102064.56
2023-04-17T08:52:42.567Z,102062.06
2023-04-17T08:55:11.983Z,102063.97
2023-04-17T08:57:55.304Z,102061.94
2023-04-17T09:00:27.534Z,102063.34
2023-04-17T09:02:56.681Z,102051.53
2023-04-17T09:05:27.221Z,102060.56
2023-04-17T09:08:08.566Z,102053.13
2023-04-17T09:10:37.712Z,102052.22
2023-04-17T09:13:05.776Z,102056.78
2023-04-17T09:15:33.946Z,102057.63
2023-04-17T09:18:01.993Z,102054.38
2023-04-17T09:20:31.183Z,102064.06
2023-04-17T09:23:01.311Z,102060.38
2023-04-17T09:25:29.566Z,102056.91
2023-04-17T09:28:09.752Z,102051.19
2023-04-17T09:30:38.841Z,102056.78
2023-04-17T09:33:08.514Z,102054.91
2023-04-17T09:35:40.237Z,102047.53
2023-04-17T09:38:08.445Z,102050.28
2023-04-17T09:40:40.886Z,102045.69
2023-04-17T09:43:10.588Z,102042.13
2023-04-17T09:45:42.893Z,102046.47
2023-04-17T09:48:11.964Z,102039.69
2023-04-17T09:50:41.467Z,102038.63
2023-04-17T09:53:09.744Z,102037.19
2023-04-17T09:55:37.812Z,102033.44
2023-04-17T09:58:08.095Z,102031.97
2023-04-17T10:00:37.980Z,102029.56
2023-04-17T10:03:08.148Z,102032.66
2023-04-17T10:05:36.804Z,102027.34
2023-04-17T10:08:06.867Z,102021.25
2023-04-17T10:10:36.401Z,102016.53
2023-04-17T10:13:08.192Z,102014.47
2023-04-17T10:15:37.244Z,102006.19
2023-04-17T10:18:22.875Z,102011.28
2023-04-17T10:20:53.100Z,102015.09
2023-04-17T10:23:40.145Z,102012.41
2023-04-17T10:26:37.856Z,102004.03
2023-04-17T10:29:05.735Z,101992.28
2023-04-17T10:32:24.231Z,101995.41
2023-04-17T10:34:52.843Z,101991.66
2023-04-17T10:37:23.041Z,101981.31
2023-04-17T10:39:56.689Z,101980.13
2023-04-17T10:42:25.635Z,101983.47
2023-04-17T10:44:58.870Z,101974.44
2023-04-17T10:47:31.412Z,101983.44
2023-04-17T10:49:59.866Z,101983.47
2023-04-17T10:52:48.624Z,101978.06
2023-04-17T10:55:22.071Z,101969.41
2023-04-17T10:58:04.742Z,101980.78
2023-04-17T11:00:34.790Z,101978.31
2023-04-17T11:03:03.450Z,101972.09
2023-04-17T11:05:32.297Z,101971.16
2023-04-17T11:08:00.586Z,101965.16
2023-04-17T11:10:29.771Z,101967.84
2023-04-17T11:12:57.544Z,101972.97
2023-04-17T11:15:29.283Z,101963.81
2023-04-17T11:17:57.919Z,101970.00
2023-04-17T11:20:27.142Z,101957.28
2023-04-17T11:22:54.902Z,101965.13
2023-04-17T11:25:24.518Z,101962.63
2023-04-17T11:27:56.585Z,101959.25
2023-04-17T11:30:32.355Z,101959.97
2023-04-17T11:33:00.922Z,101957.94
2023-04-17T11:35:30.028Z,101952.03
2023-04-17T11:38:12.824Z,101962.09
2023-04-17T11:40:48.730Z,101957.13
2023-04-17T11:43:18.535Z,101957.00
2023-04-17T11:45:48.727Z,101953.44
2023-04-17T11:48:19.620Z,101954.75
2023-04-17T11:50:47.307Z,101957.75
2023-04-17T11:53:16.324Z,101947.59
2023-04-17T11:55:44.881Z,101952.25
2023-04-17T11:58:14.389Z,101948.47
2023-04-17T12:00:43.579Z,101952.56
2023-04-17T12:03:35.001Z,101945.03
2023-04-17T12:06:05.011Z,101935.78
2023-04-17T12:08:42.180Z,101942.97
2023-04-17T12:11:18.595Z,101936.72
2023-04-17T12:13:46.377Z,101934.50
2023-04-17T12:16:15.471Z,101938.16
2023-04-17T12:18:43.172Z,101935.63
2023-04-17T12:21:10.914Z,101930.63
2023-04-17T12:23:38.836Z,101926.50
2023-04-17T12:26:06.847Z,101924.41
2023-04-17T12:28:34.739Z,101926.50
2023-04-17T12:31:02.545Z,101927.78
2023-04-17T12:33:31.950Z,101927.41
2023-04-17T12:36:00.331Z,101935.66
2023-04-17T12:38:28.312Z,101933.63
2023-04-17T12:40:56.105Z,101925.31
2023-04-17T12:43:23.951Z,101932.94
2023-04-17T12:45:53.593Z,101923.16
2023-04-17T12:48:21.351Z,101916.41
2023-04-17T12:50:50.440Z,101916.75
2023-04-17T12:53:18.367Z,101917.78
2023-04-17T12:55:46.061Z,101911.22
2023-04-17T12:58:14.533Z,101913.22
2023-04-17T13:00:43.798Z,101906.81
2023-04-17T13:03:12.609Z,101912.50
2023-04-17T13:05:40.733Z,101910.94
2023-04-17T13:08:14.803Z,101908.03
2023-04-17T13:10:42.864Z,101908.91
2023-04-17T13:13:11.262Z,101910.38
2023-04-17T13:15:40.406Z,101901.34
2023-04-17T13:18:10.484Z,101895.25
2023-04-17T13:20:38.901Z,101897.53
2023-04-17T13:23:06.649Z,101894.88
2023-04-17T13:25:36.445Z,101890.66
2023-04-17T13:28:04.310Z,101890.84
2023-04-17T13:30:33.554Z,101886.47
2023-04-17T13:33:01.443Z,101881.06
2023-04-17T13:35:29.179Z,101879.78
2023-04-17T13:38:00.918Z,101874.63
2023-04-17T13:40:28.814Z,101879.84
2023-04-17T13:42:58.502Z,101871.00
2023-04-17T13:45:26.285Z,101875.63
2023-04-17T13:47:54.098Z,101869.00
2023-04-17T13:50:21.848Z,101868.31
2023-04-17T13:52:49.595Z,101864.78
2023-04-17T13:55:17.486Z,101860.28
2023-04-17T13:57:45.156Z,101852.50
2023-04-17T14:00:15.743Z,101864.06
2023-04-17T14:02:43.592Z,101854.03
2023-04-17T14:05:11.520Z,101859.53
2023-04-17T14:07:39.441Z,101853.16
2023-04-17T14:10:08.745Z,101851.31
2023-04-17T14:12:36.522Z,101847.66
2023-04-17T14:15:04.574Z,101852.50
2023-04-17T14:17:34.363Z,101846.81
2023-04-17T14:20:02.201Z,101844.84
2023-04-17T14:22:29.975Z,101840.88
2023-04-17T14:24:57.642Z,101853.06
2023-04-17T14:27:25.379Z,101849.72
2023-04-17T14:29:53.135Z,101845.03
2023-04-17T14:32:20.833Z,101853.34
2023-04-17T14:34:50.027Z,101839.41
2023-04-17T14:37:17.758Z,101842.97
2023-04-17T14:39:45.444Z,101839.13
2023-04-17T14:42:13.133Z,101836.59
2023-04-17T14:44:40.877Z,101838.38
2023-04-17T14:47:08.762Z,101833.97
2023-04-17T14:49:36.635Z,101830.25
2023-04-17T14:52:06.819Z,101825.16
2023-04-17T14:54:34.931Z,101819.06
2023-04-17T14:57:02.749Z,101808.50
2023-04-17T14:59:30.800Z,101816.72
2023-04-17T15:01:58.628Z,101815.84
2023-04-17T15:04:26.506Z,101813.66
2023-04-17T15:06:54.250Z,101805.66
2023-04-17T15:09:23.308Z,101801.25
2023-04-17T15:11:51.195Z,101807.63
2023-04-17T15:14:18.855Z,101812.69
2023-04-17T15:16:46.672Z,101811.22
2023-04-17T15:19:14.647Z,101804.72
2023-04-17T15:21:42.520Z,101810.94
2023-04-17T15:24:10.213Z,101808.16
2023-04-17T15:26:39.239Z,101807.13
2023-04-17T15:29:06.968Z,101801.94
2023-04-17T15:31:34.789Z,101802.53
2023-04-17T15:34:02.499Z,101811.06
2023-04-17T15:36:32.176Z,101804.78
2023-04-17T15:38:59.896Z,101813.00
2023-04-17T15:41:27.959Z,101804.59
2023-04-17T15:43:57.234Z,101810.22
2023-04-17T15:46:25.055Z,101796.06
2023-04-17T15:49:07.649Z,101805.25
2023-04-17T15:51:36.400Z,101807.25
2023-04-17T15:54:04.572Z,101808.06
2023-04-17T15:56:32.287Z,101809.59
2023-04-17T15:59:01.333Z,101807.81
2023-04-17T16:01:29.052Z,101804.75
2023-04-17T16:03:56.861Z,101800.75
2023-04-17T16:06:24.629Z,101794.78
2023-04-17T16:08:52.381Z,101794.41
2023-04-17T16:11:20.162Z,101790.16
2023-04-17T16:13:47.868Z,101787.19
2023-04-17T16:16:16.992Z,101792.19
2023-04-17T16:18:47.159Z,101783.63
2023-04-17T16:21:15.255Z,101787.81
2023-04-17T16:23:45.698Z,101781.47
2023-04-17T16:26:14.577Z,101784.00
2023-04-17T16:28:43.228Z,101785.25
2023-04-17T16:31:11.109Z,101789.34
2023-04-17T16:33:40.362Z,101789.34
2023-04-17T16:36:08.250Z,101782.31
2023-04-17T16:38:36.082Z,101782.47
2023-04-17T16:41:04.291Z,101781.50
2023-04-17T16:43:32.160Z,101782.66
2023-04-17T16:46:01.414Z,101777.19
2023-04-17T16:48:36.469Z,101770.88
2023-04-17T16:51:06.692Z,101771.72
2023-04-17T16:53:34.785Z,101767.06
2023-04-17T16:56:02.716Z,101765.88
2023-04-17T16:58:30.853Z,101769.00
2023-04-17T17:00:58.624Z,101767.88
2023-04-17T17:03:26.598Z,101771.09
2023-04-17T17:05:55.103Z,101767.13
2023-04-17T17:08:24.407Z,101768.38
2023-04-17T17:10:52.344Z,101775.97
2023-04-17T17:13:20.045Z,101764.31
2023-04-17T17:15:47.753Z,101763.00
2023-04-17T17:18:15.571Z,101775.34
2023-04-17T17:20:43.283Z,101765.09
2023-04-17T17:23:11.087Z,101759.84
2023-04-17T17:25:40.113Z,101760.09
2023-04-17T17:28:07.833Z,101765.34
2023-04-17T17:30:35.546Z,101771.13
2023-04-17T17:33:03.247Z,101762.03
2023-04-17T17:35:30.924Z,101758.00
2023-04-17T17:37:58.669Z,101768.00
2023-04-17T17:40:26.393Z,101768.38
2023-04-17T17:42:55.428Z,101764.69
2023-04-17T17:45:23.115Z,101756.44
2023-04-17T17:47:50.893Z,101757.84
2023-04-17T17:50:18.752Z,101762.63
2023-04-17T17:52:46.516Z,101765.88
2023-04-17T17:55:15.940Z,101768.94
2023-04-17T17:57:49.389Z,101767.19
2023-04-17T18:00:19.677Z,101768.28
2023-04-17T18:02:47.632Z,101770.13
2023-04-17T18:05:15.377Z,101758.00
2023-04-17T18:07:43.178Z,101760.41
2023-04-17T18:10:11.559Z,101755.47
2023-04-17T18:12:39.669Z,101754.53
2023-04-17T18:15:08.744Z,101757.84
2023-04-17T18:17:37.850Z,101755.69
2023-04-17T18:20:06.030Z,101755.91
2023-04-17T18:22:33.743Z,101760.63
2023-04-17T18:25:01.592Z,101757.56
2023-04-17T18:27:30.773Z,101757.03
2023-04-17T18:29:59.348Z,101762.38
2023-04-17T18:32:27.031Z,101756.47
2023-04-17T18:34:56.133Z,101760.16
2023-04-17T18:37:24.052Z,101756.41
2023-04-17T18:39:52.723Z,101761.66
2023-04-17T18:42:20.511Z,101759.47
2023-04-17T18:44:48.653Z,101765.38
2023-04-17T18:47:16.520Z,101769.03
2023-04-17T18:49:44.432Z,101761.06
2023-04-17T18:52:13.496Z,101756.81
2023-04-17T18:54:41.129Z,101763.91
2023-04-17T18:57:08.837Z,101760.19
2023-04-17T18:59:36.561Z,101762.63
2023-04-17T19:02:04.424Z,101762.72
2023-04-17T19:04:32.193Z,101755.66
2023-04-17T19:07:00.075Z,101766.88
2023-04-17T19:09:29.339Z,101769.50
2023-04-17T19:11:58.558Z,101760.50
2023-04-17T19:14:26.604Z,101770.09
2023-04-17T19:16:54.442Z,101765.31
2023-04-17T19:19:22.291Z,101756.09
2023-04-17T19:21:50.123Z,101762.81
2023-04-17T19:24:17.850Z,101771.34
2023-04-17T19:26:47.072Z,101770.97
2023-04-17T19:29:17.073Z,101767.81
2023-04-17T19:31:45.640Z,101777.28
2023-04-17T19:34:13.399Z,101777.69
2023-04-17T19:36:42.527Z,101781.09
2023-04-17T19:39:10.245Z,101777.06
2023-04-17T19:41:38.029Z,101790.19
2023-04-17T19:44:07.210Z,101783.13
2023-04-17T19:46:34.910Z,101793.13
2023-04-17T19:49:02.613Z,101796.56
2023-04-17T19:51:31.375Z,101796.06
2023-04-17T19:53:59.049Z,101802.44
2023-04-17T19:56:26.726Z,101803.91
2023-04-17T19:58:54.407Z,101803.47
2023-04-17T20:01:23.492Z,101814.59
2023-04-17T20:03:51.375Z,101809.25
2023-04-17T20:06:20.427Z,101819.06
2023-04-17T20:08:48.192Z,101826.47
2023-04-17T20:11:17.019Z,101819.28
2023-04-17T20:13:44.726Z,101823.06
2023-04-17T20:16:12.379Z,101818.50
2023-04-17T20:18:41.752Z,101827.25
2023-04-17T20:21:09.471Z,101831.25
2023-04-17T20:23:37.202Z,101834.28
2023-04-17T20:26:04.976Z,101829.78
2023-04-17T20:28:32.727Z,101828.56
2023-04-17T20:31:00.590Z,101830.44
2023-04-17T20:33:28.467Z,101829.38
2023-04-17T20:35:57.565Z,101836.16
2023-04-17T20:38:25.721Z,101838.94
2023-04-17T20:40:53.471Z,101835.00
2023-04-17T20:43:21.188Z,101844.66
2023-04-17T20:45:49.376Z,101846.22
2023-04-17T20:48:17.219Z,101843.94
2023-04-17T20:50:45.014Z,101846.34
2023-04-17T20:53:14.087Z,101841.94
2023-04-17T20:55:41.896Z,101839.88
2023-04-17T20:58:09.657Z,101839.16
2023-04-17T21:00:44.391Z,101841.47
2023-04-17T21:03:15.415Z,101841.84
2023-04-17T21:05:43.319Z,101842.22
2023-04-17T21:08:11.578Z,101843.63
2023-04-17T21:10:40.912Z,101847.91
2023-04-17T21:13:08.652Z,101846.66
2023-04-17T21:15:36.388Z,101841.97
2023-04-17T21:18:04.228Z,101846.22
2023-04-17T21:20:32.030Z,101842.00
2023-04-17T21:22:59.761Z,101844.97
2023-04-17T21:25:27.562Z,101847.31
2023-04-17T21:27:56.643Z,101839.13
2023-04-17T21:30:27.111Z,101849.66
2023-04-17T21:32:55.412Z,101843.41
2023-04-17T21:35:23.315Z,101850.06
2023-04-17T21:37:51.080Z,101846.53
2023-04-17T21:40:18.850Z,101850.44
2023-04-17T21:42:46.728Z,101846.03
2023-04-17T21:45:16.194Z,101848.16
2023-04-17T21:47:43.987Z,101840.53
2023-04-17T21:50:12.134Z,101844.38
2023-04-17T21:52:39.828Z,101850.28
2023-04-17T21:55:08.575Z,101844.94
2023-04-17T21:57:36.272Z,101852.25
2023-04-17T22:00:05.384Z,101849.16
2023-04-17T22:02:34.499Z,101846.31
2023-04-17T22:05:02.237Z,101849.41
2023-04-17T22:07:30.147Z,101854.16
2023-04-17T22:10:00.192Z,101857.16
2023-04-17T22:12:27.926Z,101865.91
2023-04-17T22:14:55.778Z,101866.00
2023-04-17T22:17:23.593Z,101871.13
2023-04-17T22:20:12.307Z,101873.50
2023-04-17T22:22:40.100Z,101884.63
2023-04-17T22:25:08.586Z,101882.16
2023-04-17T22:27:36.327Z,101885.56
2023-04-17T22:30:04.628Z,101887.53
2023-04-17T22:32:34.071Z,101883.13
2023-04-17T22:35:01.751Z,101882.38
2023-04-17T22:37:31.151Z,101884.84
2023-04-17T22:39:58.930Z,101891.41
2023-04-17T22:42:26.626Z,101876.44
2023-04-17T22:44:54.338Z,101882.78
2023-04-17T22:47:22.745Z,101869.31
2023-04-17T22:49:52.516Z,101879.53
2023-04-17T22:52:20.550Z,101881.34
2023-04-17T22:54:49.570Z,101880.34
2023-04-17T22:57:17.248Z,101889.13
2023-04-17T22:59:44.980Z,101881.56
2023-04-17T23:02:12.881Z,101889.78
2023-04-17T23:04:40.783Z,101881.56
2023-04-17T23:07:08.560Z,101884.25
2023-04-17T23:09:36.277Z,101883.94
2023-04-17T23:12:07.032Z,101882.94
2023-04-17T23:14:34.882Z,101881.91
2023-04-17T23:17:02.642Z,101880.91
2023-04-17T23:19:30.382Z,101871.13
2023-04-17T23:21:59.598Z,101876.50
2023-04-17T23:24:27.454Z,101873.06
2023-04-17T23:26:56.097Z,101867.81
2023-04-17T23:29:25.244Z,101869.03
2023-04-17T23:31:53.109Z,101867.06
2023-04-17T23:34:20.919Z,101866.69
2023-04-17T23:36:48.682Z,101865.22
2023-04-17T23:39:16.372Z,101864.06
2023-04-17T23:41:44.115Z,101861.25
2023-04-17T23:44:12.089Z,101853.09
2023-04-17T23:46:41.556Z,101849.25
2023-04-17T23:49:09.451Z,101854.84
2023-04-17T23:51:37.194Z,101856.47
2023-04-17T23:54:05.323Z,101848.94
2023-04-17T23:56:33.147Z,101853.56
2023-04-17T23:59:00.946Z,101854.88
